sensor_id;sensor_type;location;lat;lon;timestamp;P1;durP1;ratioP1;P2;durP2;ratioP2
78891;SDS011;68368;51.728;5.248;2023-04-24T00:01:18;5.80;;;3.80;;
78891;SDS011;68368;51.728;5.248;2023-04-24T00:03:21;9.50;;;5.20;;
78891;SDS011;68368;51.728;5.248;2023-04-24T00:05:24;7.70;;;5.50;;
78891;SDS011;68368;51.728;5.248;2023-04-24T00:07:28;9.10;;;5.80;;
78891;SDS011;68368;51.728;5.248;2023-04-24T00:09:34;9.30;;;5.90;;
78891;SDS011;68368;51.728;5.248;2023-04-24T00:11:37;9.90;;;7.20;;
78891;SDS011;68368;51.728;5.248;2023-04-24T00:13:40;8.40;;;5.80;;
78891;SDS011;68368;51.728;5.248;2023-04-24T00:15:45;9.30;;;5.60;;
78891;SDS011;68368;51.728;5.248;2023-04-24T00:17:48;10.40;;;7.20;;
78891;SDS011;68368;51.728;5.248;2023-04-24T00:19:52;9.70;;;7.30;;
78891;SDS011;68368;51.728;5.248;2023-04-24T00:21:55;11.00;;;7.00;;
78891;SDS011;68368;51.728;5.248;2023-04-24T00:23:58;10.40;;;7.20;;
78891;SDS011;68368;51.728;5.248;2023-04-24T00:26:01;10.10;;;5.90;;
78891;SDS011;68368;51.728;5.248;2023-04-24T00:28:05;10.80;;;7.20;;
78891;SDS011;68368;51.728;5.248;2023-04-24T00:30:09;11.50;;;7.40;;
78891;SDS011;68368;51.728;5.248;2023-04-24T00:32:13;13.70;;;8.40;;
78891;SDS011;68368;51.728;5.248;2023-04-24T00:34:16;12.90;;;8.80;;
78891;SDS011;68368;51.728;5.248;2023-04-24T00:36:19;12.80;;;8.10;;
78891;SDS011;68368;51.728;5.248;2023-04-24T00:38:24;13.30;;;8.90;;
78891;SDS011;68368;51.728;5.248;2023-04-24T00:40:28;18.30;;;10.40;;
78891;SDS011;68368;51.728;5.248;2023-04-24T00:42:31;20.50;;;11.70;;
78891;SDS011;68368;51.728;5.248;2023-04-24T00:44:35;18.20;;;12.00;;
78891;SDS011;68368;51.728;5.248;2023-04-24T00:46:38;18.90;;;11.40;;
78891;SDS011;68368;51.728;5.248;2023-04-24T00:48:42;19.50;;;11.10;;
78891;SDS011;68368;51.728;5.248;2023-04-24T00:50:49;18.30;;;11.40;;
78891;SDS011;68368;51.728;5.248;2023-04-24T00:52:52;16.00;;;10.80;;
78891;SDS011;68368;51.728;5.248;2023-04-24T00:54:55;16.00;;;10.10;;
78891;SDS011;68368;51.728;5.248;2023-04-24T00:56:59;17.20;;;11.60;;
78891;SDS011;68368;51.728;5.248;2023-04-24T00:59:04;19.00;;;10.80;;
78891;SDS011;68368;51.728;5.248;2023-04-24T01:01:07;24.40;;;13.70;;
78891;SDS011;68368;51.728;5.248;2023-04-24T01:03:12;20.80;;;12.40;;
78891;SDS011;68368;51.728;5.248;2023-04-24T01:05:17;18.60;;;10.70;;
78891;SDS011;68368;51.728;5.248;2023-04-24T01:07:20;20.10;;;11.60;;
78891;SDS011;68368;51.728;5.248;2023-04-24T01:09:24;17.50;;;10.50;;
78891;SDS011;68368;51.728;5.248;2023-04-24T01:11:30;17.30;;;10.60;;
78891;SDS011;68368;51.728;5.248;2023-04-24T01:13:33;18.70;;;11.20;;
78891;SDS011;68368;51.728;5.248;2023-04-24T01:15:37;20.50;;;10.40;;
78891;SDS011;68368;51.728;5.248;2023-04-24T01:17:42;22.10;;;12.20;;
78891;SDS011;68368;51.728;5.248;2023-04-24T01:19:45;16.60;;;11.10;;
78891;SDS011;68368;51.728;5.248;2023-04-24T01:21:48;18.20;;;11.10;;
78891;SDS011;68368;51.728;5.248;2023-04-24T01:23:57;16.00;;;10.80;;
78891;SDS011;68368;51.728;5.248;2023-04-24T01:26:00;15.20;;;10.50;;
78891;SDS011;68368;51.728;5.248;2023-04-24T01:28:04;16.20;;;11.10;;
78891;SDS011;68368;51.728;5.248;2023-04-24T01:30:08;16.60;;;10.80;;
78891;SDS011;68368;51.728;5.248;2023-04-24T01:32:13;18.70;;;12.00;;
78891;SDS011;68368;51.728;5.248;2023-04-24T01:34:16;16.60;;;10.60;;
78891;SDS011;68368;51.728;5.248;2023-04-24T01:36:20;22.20;;;13.20;;
78891;SDS011;68368;51.728;5.248;2023-04-24T01:38:25;22.00;;;13.50;;
78891;SDS011;68368;51.728;5.248;2023-04-24T01:40:29;18.80;;;12.00;;
78891;SDS011;68368;51.728;5.248;2023-04-24T01:42:33;17.00;;;11.60;;
78891;SDS011;68368;51.728;5.248;2023-04-24T01:44:41;19.00;;;12.50;;
78891;SDS011;68368;51.728;5.248;2023-04-24T01:46:45;18.40;;;13.00;;
78891;SDS011;68368;51.728;5.248;2023-04-24T01:48:50;20.50;;;13.30;;
78891;SDS011;68368;51.728;5.248;2023-04-24T01:50:54;18.60;;;12.20;;
78891;SDS011;68368;51.728;5.248;2023-04-24T01:52:58;16.60;;;10.60;;
78891;SDS011;68368;51.728;5.248;2023-04-24T01:55:01;17.90;;;11.60;;
78891;SDS011;68368;51.728;5.248;2023-04-24T01:57:07;17.70;;;11.40;;
78891;SDS011;68368;51.728;5.248;2023-04-24T01:59:11;17.10;;;11.10;;
78891;SDS011;68368;51.728;5.248;2023-04-24T02:01:19;15.20;;;9.60;;
78891;SDS011;68368;51.728;5.248;2023-04-24T02:03:24;14.60;;;9.10;;
78891;SDS011;68368;51.728;5.248;2023-04-24T02:05:28;16.90;;;10.30;;
78891;SDS011;68368;51.728;5.248;2023-04-24T02:07:31;15.40;;;10.60;;
78891;SDS011;68368;51.728;5.248;2023-04-24T02:09:34;17.10;;;10.80;;
78891;SDS011;68368;51.728;5.248;2023-04-24T02:11:37;14.60;;;10.00;;
78891;SDS011;68368;51.728;5.248;2023-04-24T02:13:43;14.50;;;10.10;;
78891;SDS011;68368;51.728;5.248;2023-04-24T02:15:47;14.80;;;9.80;;
78891;SDS011;68368;51.728;5.248;2023-04-24T02:17:50;14.50;;;10.00;;
78891;SDS011;68368;51.728;5.248;2023-04-24T02:19:53;17.90;;;10.80;;
78891;SDS011;68368;51.728;5.248;2023-04-24T02:21:58;19.50;;;12.30;;
78891;SDS011;68368;51.728;5.248;2023-04-24T02:24:05;16.90;;;10.80;;
78891;SDS011;68368;51.728;5.248;2023-04-24T02:26:09;13.60;;;10.20;;
78891;SDS011;68368;51.728;5.248;2023-04-24T02:28:13;15.70;;;10.30;;
78891;SDS011;68368;51.728;5.248;2023-04-24T02:30:17;16.40;;;10.70;;
78891;SDS011;68368;51.728;5.248;2023-04-24T02:32:20;13.80;;;9.60;;
78891;SDS011;68368;51.728;5.248;2023-04-24T02:34:24;17.60;;;11.10;;
78891;SDS011;68368;51.728;5.248;2023-04-24T02:36:30;15.80;;;10.10;;
78891;SDS011;68368;51.728;5.248;2023-04-24T02:38:36;19.00;;;11.70;;
78891;SDS011;68368;51.728;5.248;2023-04-24T02:40:39;18.30;;;10.90;;
78891;SDS011;68368;51.728;5.248;2023-04-24T02:42:47;18.30;;;11.40;;
78891;SDS011;68368;51.728;5.248;2023-04-24T02:44:51;19.70;;;12.20;;
78891;SDS011;68368;51.728;5.248;2023-04-24T02:46:55;17.80;;;12.00;;
78891;SDS011;68368;51.728;5.248;2023-04-24T02:49:00;17.80;;;10.90;;
78891;SDS011;68368;51.728;5.248;2023-04-24T02:51:04;16.00;;;10.40;;
78891;SDS011;68368;51.728;5.248;2023-04-24T02:53:07;16.10;;;10.70;;
78891;SDS011;68368;51.728;5.248;2023-04-24T02:55:12;15.90;;;9.70;;
78891;SDS011;68368;51.728;5.248;2023-04-24T02:57:16;15.50;;;10.50;;
78891;SDS011;68368;51.728;5.248;2023-04-24T02:59:22;18.70;;;12.30;;
78891;SDS011;68368;51.728;5.248;2023-04-24T03:01:25;20.80;;;12.60;;
78891;SDS011;68368;51.728;5.248;2023-04-24T03:03:28;18.90;;;12.20;;
78891;SDS011;68368;51.728;5.248;2023-04-24T03:05:31;19.00;;;11.80;;
78891;SDS011;68368;51.728;5.248;2023-04-24T03:07:35;18.10;;;11.90;;
78891;SDS011;68368;51.728;5.248;2023-04-24T03:09:38;16.90;;;11.10;;
78891;SDS011;68368;51.728;5.248;2023-04-24T03:11:42;20.70;;;12.30;;
78891;SDS011;68368;51.728;5.248;2023-04-24T03:13:46;19.10;;;11.20;;
78891;SDS011;68368;51.728;5.248;2023-04-24T03:15:52;19.70;;;12.90;;
78891;SDS011;68368;51.728;5.248;2023-04-24T03:17:55;20.50;;;13.00;;
78891;SDS011;68368;51.728;5.248;2023-04-24T03:20:01;22.10;;;12.40;;
78891;SDS011;68368;51.728;5.248;2023-04-24T03:22:06;19.00;;;10.90;;
78891;SDS011;68368;51.728;5.248;2023-04-24T03:24:11;21.80;;;13.60;;
78891;SDS011;68368;51.728;5.248;2023-04-24T03:26:14;18.20;;;11.30;;
78891;SDS011;68368;51.728;5.248;2023-04-24T03:28:18;19.60;;;11.50;;
78891;SDS011;68368;51.728;5.248;2023-04-24T03:30:21;21.50;;;13.50;;
78891;SDS011;68368;51.728;5.248;2023-04-24T03:32:24;22.00;;;12.10;;
78891;SDS011;68368;51.728;5.248;2023-04-24T03:34:27;20.40;;;12.60;;
78891;SDS011;68368;51.728;5.248;2023-04-24T03:36:31;18.70;;;10.70;;
78891;SDS011;68368;51.728;5.248;2023-04-24T03:38:34;16.40;;;10.70;;
78891;SDS011;68368;51.728;5.248;2023-04-24T03:40:37;22.90;;;12.60;;
78891;SDS011;68368;51.728;5.248;2023-04-24T03:42:40;20.20;;;12.40;;
78891;SDS011;68368;51.728;5.248;2023-04-24T03:44:43;18.50;;;11.60;;
78891;SDS011;68368;51.728;5.248;2023-04-24T03:46:46;17.50;;;11.20;;
78891;SDS011;68368;51.728;5.248;2023-04-24T03:48:49;19.00;;;12.60;;
78891;SDS011;68368;51.728;5.248;2023-04-24T03:50:53;18.50;;;11.20;;
78891;SDS011;68368;51.728;5.248;2023-04-24T03:52:56;18.10;;;11.30;;
78891;SDS011;68368;51.728;5.248;2023-04-24T03:54:59;15.20;;;9.90;;
78891;SDS011;68368;51.728;5.248;2023-04-24T03:57:02;16.70;;;10.30;;
78891;SDS011;68368;51.728;5.248;2023-04-24T03:59:06;17.80;;;11.00;;
78891;SDS011;68368;51.728;5.248;2023-04-24T04:01:09;18.00;;;11.40;;
78891;SDS011;68368;51.728;5.248;2023-04-24T04:03:13;18.30;;;11.80;;
78891;SDS011;68368;51.728;5.248;2023-04-24T04:05:17;17.50;;;10.40;;
78891;SDS011;68368;51.728;5.248;2023-04-24T04:07:20;16.70;;;10.50;;
78891;SDS011;68368;51.728;5.248;2023-04-24T04:09:24;16.00;;;11.60;;
78891;SDS011;68368;51.728;5.248;2023-04-24T04:11:28;16.00;;;10.20;;
78891;SDS011;68368;51.728;5.248;2023-04-24T04:13:33;15.10;;;9.10;;
78891;SDS011;68368;51.728;5.248;2023-04-24T04:15:37;14.70;;;8.70;;
78891;SDS011;68368;51.728;5.248;2023-04-24T04:17:40;16.40;;;9.30;;
78891;SDS011;68368;51.728;5.248;2023-04-24T04:19:44;12.30;;;8.20;;
78891;SDS011;68368;51.728;5.248;2023-04-24T04:21:47;11.70;;;8.00;;
78891;SDS011;68368;51.728;5.248;2023-04-24T04:23:50;10.60;;;7.60;;
78891;SDS011;68368;51.728;5.248;2023-04-24T04:25:56;9.90;;;6.90;;
78891;SDS011;68368;51.728;5.248;2023-04-24T04:28:00;7.60;;;5.90;;
78891;SDS011;68368;51.728;5.248;2023-04-24T04:30:03;7.60;;;5.00;;
78891;SDS011;68368;51.728;5.248;2023-04-24T04:32:07;12.20;;;7.00;;
78891;SDS011;68368;51.728;5.248;2023-04-24T04:34:13;9.00;;;5.80;;
78891;SDS011;68368;51.728;5.248;2023-04-24T04:36:17;8.80;;;5.30;;
78891;SDS011;68368;51.728;5.248;2023-04-24T04:38:21;5.30;;;3.70;;
78891;SDS011;68368;51.728;5.248;2023-04-24T04:40:27;6.10;;;3.90;;
78891;SDS011;68368;51.728;5.248;2023-04-24T04:42:31;5.50;;;3.00;;
78891;SDS011;68368;51.728;5.248;2023-04-24T04:44:34;5.40;;;3.20;;
78891;SDS011;68368;51.728;5.248;2023-04-24T04:46:40;4.40;;;3.10;;
78891;SDS011;68368;51.728;5.248;2023-04-24T04:48:43;7.50;;;4.10;;
78891;SDS011;68368;51.728;5.248;2023-04-24T04:50:47;6.80;;;3.50;;
78891;SDS011;68368;51.728;5.248;2023-04-24T04:52:51;5.60;;;3.50;;
78891;SDS011;68368;51.728;5.248;2023-04-24T04:54:58;6.70;;;3.40;;
78891;SDS011;68368;51.728;5.248;2023-04-24T04:57:02;5.10;;;3.90;;
78891;SDS011;68368;51.728;5.248;2023-04-24T04:59:05;5.20;;;3.70;;
78891;SDS011;68368;51.728;5.248;2023-04-24T05:01:15;7.40;;;3.90;;
78891;SDS011;68368;51.728;5.248;2023-04-24T05:03:19;5.20;;;3.40;;
78891;SDS011;68368;51.728;5.248;2023-04-24T05:05:22;6.70;;;3.80;;
78891;SDS011;68368;51.728;5.248;2023-04-24T05:07:26;4.60;;;3.50;;
78891;SDS011;68368;51.728;5.248;2023-04-24T05:09:29;4.60;;;3.00;;
78891;SDS011;68368;51.728;5.248;2023-04-24T05:11:33;4.60;;;2.60;;
78891;SDS011;68368;51.728;5.248;2023-04-24T05:13:44;3.60;;;2.70;;
78891;SDS011;68368;51.728;5.248;2023-04-24T05:15:48;3.00;;;1.90;;
78891;SDS011;68368;51.728;5.248;2023-04-24T05:17:53;2.20;;;1.40;;
78891;SDS011;68368;51.728;5.248;2023-04-24T05:19:57;2.70;;;1.50;;
78891;SDS011;68368;51.728;5.248;2023-04-24T05:22:02;3.10;;;2.00;;
78891;SDS011;68368;51.728;5.248;2023-04-24T05:24:13;2.40;;;1.80;;
78891;SDS011;68368;51.728;5.248;2023-04-24T05:26:17;3.30;;;2.00;;
78891;SDS011;68368;51.728;5.248;2023-04-24T05:28:23;2.70;;;1.80;;
78891;SDS011;68368;51.728;5.248;2023-04-24T05:30:29;3.00;;;1.40;;
78891;SDS011;68368;51.728;5.248;2023-04-24T05:32:32;2.10;;;1.40;;
78891;SDS011;68368;51.728;5.248;2023-04-24T05:34:35;3.00;;;1.70;;
78891;SDS011;68368;51.728;5.248;2023-04-24T05:36:39;3.30;;;1.60;;
78891;SDS011;68368;51.728;5.248;2023-04-24T05:38:44;3.00;;;1.60;;
78891;SDS011;68368;51.728;5.248;2023-04-24T05:40:48;2.80;;;1.40;;
78891;SDS011;68368;51.728;5.248;2023-04-24T05:42:52;2.60;;;1.50;;
78891;SDS011;68368;51.728;5.248;2023-04-24T05:44:58;2.20;;;1.50;;
78891;SDS011;68368;51.728;5.248;2023-04-24T05:47:01;1.50;;;1.00;;
78891;SDS011;68368;51.728;5.248;2023-04-24T05:49:07;2.40;;;1.00;;
78891;SDS011;68368;51.728;5.248;2023-04-24T05:51:13;2.00;;;1.10;;
78891;SDS011;68368;51.728;5.248;2023-04-24T05:53:21;2.60;;;1.10;;
78891;SDS011;68368;51.728;5.248;2023-04-24T05:55:25;1.60;;;1.00;;
78891;SDS011;68368;51.728;5.248;2023-04-24T05:57:29;1.40;;;0.80;;
78891;SDS011;68368;51.728;5.248;2023-04-24T05:59:33;1.70;;;1.00;;
78891;SDS011;68368;51.728;5.248;2023-04-24T06:01:38;1.80;;;1.40;;
78891;SDS011;68368;51.728;5.248;2023-04-24T06:03:43;3.20;;;0.70;;
78891;SDS011;68368;51.728;5.248;2023-04-24T06:05:46;1.30;;;0.70;;
78891;SDS011;68368;51.728;5.248;2023-04-24T06:07:52;1.00;;;0.90;;
78891;SDS011;68368;51.728;5.248;2023-04-24T06:09:57;1.80;;;1.20;;
78891;SDS011;68368;51.728;5.248;2023-04-24T06:12:08;1.30;;;1.10;;
78891;SDS011;68368;51.728;5.248;2023-04-24T06:14:15;2.10;;;1.10;;
78891;SDS011;68368;51.728;5.248;2023-04-24T06:16:20;1.60;;;1.10;;
78891;SDS011;68368;51.728;5.248;2023-04-24T06:18:31;2.20;;;1.10;;
78891;SDS011;68368;51.728;5.248;2023-04-24T06:20:36;3.70;;;1.40;;
78891;SDS011;68368;51.728;5.248;2023-04-24T06:22:40;2.40;;;1.40;;
78891;SDS011;68368;51.728;5.248;2023-04-24T06:24:43;1.80;;;1.10;;
78891;SDS011;68368;51.728;5.248;2023-04-24T06:26:46;2.20;;;0.90;;
78891;SDS011;68368;51.728;5.248;2023-04-24T06:28:50;2.50;;;1.70;;
78891;SDS011;68368;51.728;5.248;2023-04-24T06:30:54;3.90;;;2.40;;
78891;SDS011;68368;51.728;5.248;2023-04-24T06:32:58;3.30;;;2.00;;
78891;SDS011;68368;51.728;5.248;2023-04-24T06:35:02;5.90;;;3.50;;
78891;SDS011;68368;51.728;5.248;2023-04-24T06:37:07;3.80;;;2.50;;
78891;SDS011;68368;51.728;5.248;2023-04-24T06:39:13;5.60;;;2.90;;
78891;SDS011;68368;51.728;5.248;2023-04-24T06:41:20;7.50;;;4.10;;
78891;SDS011;68368;51.728;5.248;2023-04-24T06:43:24;6.60;;;4.60;;
78891;SDS011;68368;51.728;5.248;2023-04-24T06:45:28;7.50;;;4.90;;
78891;SDS011;68368;51.728;5.248;2023-04-24T06:47:33;9.20;;;5.50;;
78891;SDS011;68368;51.728;5.248;2023-04-24T06:49:36;8.80;;;4.90;;
78891;SDS011;68368;51.728;5.248;2023-04-24T06:51:41;11.80;;;5.90;;
78891;SDS011;68368;51.728;5.248;2023-04-24T06:53:44;10.60;;;5.80;;
78891;SDS011;68368;51.728;5.248;2023-04-24T06:55:48;9.30;;;6.10;;
78891;SDS011;68368;51.728;5.248;2023-04-24T06:57:55;9.20;;;6.10;;
78891;SDS011;68368;51.728;5.248;2023-04-24T06:59:58;10.90;;;5.60;;
78891;SDS011;68368;51.728;5.248;2023-04-24T07:02:03;10.40;;;5.60;;
78891;SDS011;68368;51.728;5.248;2023-04-24T07:04:07;10.50;;;5.70;;
78891;SDS011;68368;51.728;5.248;2023-04-24T07:06:10;10.00;;;6.50;;
78891;SDS011;68368;51.728;5.248;2023-04-24T07:08:15;11.70;;;5.00;;
78891;SDS011;68368;51.728;5.248;2023-04-24T07:10:18;8.10;;;6.00;;
78891;SDS011;68368;51.728;5.248;2023-04-24T07:12:23;10.90;;;5.80;;
78891;SDS011;68368;51.728;5.248;2023-04-24T07:14:28;11.20;;;5.30;;
78891;SDS011;68368;51.728;5.248;2023-04-24T07:16:33;14.00;;;6.80;;
78891;SDS011;68368;51.728;5.248;2023-04-24T07:18:36;19.90;;;7.20;;
78891;SDS011;68368;51.728;5.248;2023-04-24T07:20:40;9.40;;;5.00;;
78891;SDS011;68368;51.728;5.248;2023-04-24T07:22:44;9.80;;;6.10;;
78891;SDS011;68368;51.728;5.248;2023-04-24T07:24:47;8.90;;;5.80;;
78891;SDS011;68368;51.728;5.248;2023-04-24T07:26:53;9.90;;;5.30;;
78891;SDS011;68368;51.728;5.248;2023-04-24T07:29:00;9.30;;;4.60;;
78891;SDS011;68368;51.728;5.248;2023-04-24T07:31:05;10.70;;;5.10;;
78891;SDS011;68368;51.728;5.248;2023-04-24T07:33:10;9.80;;;6.20;;
78891;SDS011;68368;51.728;5.248;2023-04-24T07:35:13;11.20;;;4.60;;
78891;SDS011;68368;51.728;5.248;2023-04-24T07:37:20;11.60;;;3.80;;
78891;SDS011;68368;51.728;5.248;2023-04-24T07:39:27;10.10;;;3.70;;
78891;SDS011;68368;51.728;5.248;2023-04-24T07:41:31;9.30;;;4.70;;
78891;SDS011;68368;51.728;5.248;2023-04-24T07:43:35;11.70;;;4.60;;
78891;SDS011;68368;51.728;5.248;2023-04-24T07:45:38;15.30;;;4.40;;
78891;SDS011;68368;51.728;5.248;2023-04-24T07:47:42;10.50;;;3.00;;
78891;SDS011;68368;51.728;5.248;2023-04-24T07:49:46;11.40;;;4.30;;
78891;SDS011;68368;51.728;5.248;2023-04-24T07:51:50;15.40;;;5.80;;
78891;SDS011;68368;51.728;5.248;2023-04-24T07:53:54;13.80;;;4.70;;
78891;SDS011;68368;51.728;5.248;2023-04-24T07:55:57;9.80;;;3.00;;
78891;SDS011;68368;51.728;5.248;2023-04-24T07:58:00;7.60;;;3.50;;
78891;SDS011;68368;51.728;5.248;2023-04-24T08:00:07;16.30;;;3.60;;
78891;SDS011;68368;51.728;5.248;2023-04-24T08:02:13;8.70;;;3.50;;
78891;SDS011;68368;51.728;5.248;2023-04-24T08:04:16;7.70;;;3.20;;
78891;SDS011;68368;51.728;5.248;2023-04-24T08:06:20;15.70;;;3.30;;
78891;SDS011;68368;51.728;5.248;2023-04-24T08:08:24;6.30;;;2.40;;
78891;SDS011;68368;51.728;5.248;2023-04-24T08:10:30;6.80;;;2.30;;
78891;SDS011;68368;51.728;5.248;2023-04-24T08:12:34;6.60;;;2.60;;
78891;SDS011;68368;51.728;5.248;2023-04-24T08:14:38;8.20;;;2.80;;
78891;SDS011;68368;51.728;5.248;2023-04-24T08:16:42;6.20;;;1.90;;
78891;SDS011;68368;51.728;5.248;2023-04-24T08:18:45;10.50;;;2.60;;
78891;SDS011;68368;51.728;5.248;2023-04-24T08:20:49;8.50;;;1.90;;
78891;SDS011;68368;51.728;5.248;2023-04-24T08:22:52;8.30;;;2.40;;
78891;SDS011;68368;51.728;5.248;2023-04-24T08:24:55;9.40;;;2.30;;
78891;SDS011;68368;51.728;5.248;2023-04-24T08:27:01;8.90;;;2.40;;
78891;SDS011;68368;51.728;5.248;2023-04-24T08:29:04;5.20;;;1.60;;
78891;SDS011;68368;51.728;5.248;2023-04-24T08:31:07;9.40;;;2.80;;
78891;SDS011;68368;51.728;5.248;2023-04-24T08:33:10;12.40;;;3.20;;
78891;SDS011;68368;51.728;5.248;2023-04-24T08:35:14;6.90;;;2.10;;
78891;SDS011;68368;51.728;5.248;2023-04-24T08:37:18;7.60;;;2.70;;
78891;SDS011;68368;51.728;5.248;2023-04-24T08:39:22;7.50;;;1.80;;
78891;SDS011;68368;51.728;5.248;2023-04-24T08:41:25;10.00;;;2.30;;
78891;SDS011;68368;51.728;5.248;2023-04-24T08:43:30;5.70;;;1.60;;
78891;SDS011;68368;51.728;5.248;2023-04-24T08:45:36;8.30;;;2.20;;
78891;SDS011;68368;51.728;5.248;2023-04-24T08:47:39;7.10;;;2.40;;
78891;SDS011;68368;51.728;5.248;2023-04-24T08:49:43;8.50;;;2.60;;
78891;SDS011;68368;51.728;5.248;2023-04-24T08:51:49;10.20;;;1.90;;
78891;SDS011;68368;51.728;5.248;2023-04-24T08:53:54;12.70;;;2.40;;
78891;SDS011;68368;51.728;5.248;2023-04-24T08:55:58;13.30;;;2.50;;
78891;SDS011;68368;51.728;5.248;2023-04-24T08:58:02;12.30;;;3.40;;
78891;SDS011;68368;51.728;5.248;2023-04-24T09:00:07;6.00;;;2.20;;
78891;SDS011;68368;51.728;5.248;2023-04-24T09:02:11;8.30;;;2.30;;
78891;SDS011;68368;51.728;5.248;2023-04-24T09:04:15;7.40;;;2.40;;
78891;SDS011;68368;51.728;5.248;2023-04-24T09:06:21;9.90;;;2.20;;
78891;SDS011;68368;51.728;5.248;2023-04-24T09:08:25;7.00;;;2.40;;
78891;SDS011;68368;51.728;5.248;2023-04-24T09:10:29;12.40;;;2.60;;
78891;SDS011;68368;51.728;5.248;2023-04-24T09:12:33;9.10;;;2.40;;
78891;SDS011;68368;51.728;5.248;2023-04-24T09:14:37;7.50;;;2.40;;
78891;SDS011;68368;51.728;5.248;2023-04-24T09:16:40;8.00;;;1.70;;
78891;SDS011;68368;51.728;5.248;2023-04-24T09:18:44;6.00;;;1.50;;
78891;SDS011;68368;51.728;5.248;2023-04-24T09:21:02;2.40;;;1.30;;
78891;SDS011;68368;51.728;5.248;2023-04-24T09:23:09;4.60;;;1.40;;
78891;SDS011;68368;51.728;5.248;2023-04-24T09:25:18;8.90;;;2.00;;
78891;SDS011;68368;51.728;5.248;2023-04-24T09:27:22;8.10;;;2.00;;
78891;SDS011;68368;51.728;5.248;2023-04-24T09:29:26;7.80;;;1.70;;
78891;SDS011;68368;51.728;5.248;2023-04-24T09:31:30;9.40;;;2.60;;
78891;SDS011;68368;51.728;5.248;2023-04-24T09:33:33;5.80;;;1.50;;
78891;SDS011;68368;51.728;5.248;2023-04-24T09:35:40;6.20;;;2.60;;
78891;SDS011;68368;51.728;5.248;2023-04-24T09:37:45;5.20;;;2.20;;
78891;SDS011;68368;51.728;5.248;2023-04-24T09:39:51;8.40;;;1.90;;
78891;SDS011;68368;51.728;5.248;2023-04-24T09:42:10;9.50;;;2.20;;
78891;SDS011;68368;51.728;5.248;2023-04-24T09:44:14;8.30;;;2.40;;
78891;SDS011;68368;51.728;5.248;2023-04-24T09:46:19;11.10;;;2.20;;
78891;SDS011;68368;51.728;5.248;2023-04-24T09:48:30;5.80;;;1.70;;
78891;SDS011;68368;51.728;5.248;2023-04-24T09:50:34;6.50;;;1.90;;
78891;SDS011;68368;51.728;5.248;2023-04-24T09:52:40;6.50;;;1.70;;
78891;SDS011;68368;51.728;5.248;2023-04-24T09:54:46;5.30;;;1.80;;
78891;SDS011;68368;51.728;5.248;2023-04-24T09:56:55;4.00;;;1.00;;
78891;SDS011;68368;51.728;5.248;2023-04-24T09:59:05;4.60;;;1.50;;
78891;SDS011;68368;51.728;5.248;2023-04-24T10:01:08;6.10;;;1.80;;
78891;SDS011;68368;51.728;5.248;2023-04-24T10:03:12;5.60;;;1.70;;
78891;SDS011;68368;51.728;5.248;2023-04-24T10:05:15;3.20;;;1.20;;
78891;SDS011;68368;51.728;5.248;2023-04-24T10:07:20;5.70;;;1.50;;
78891;SDS011;68368;51.728;5.248;2023-04-24T10:09:24;3.90;;;1.60;;
78891;SDS011;68368;51.728;5.248;2023-04-24T10:11:28;7.90;;;1.60;;
78891;SDS011;68368;51.728;5.248;2023-04-24T10:13:33;3.90;;;1.00;;
78891;SDS011;68368;51.728;5.248;2023-04-24T10:15:37;4.00;;;0.90;;
78891;SDS011;68368;51.728;5.248;2023-04-24T10:17:41;3.10;;;0.90;;
78891;SDS011;68368;51.728;5.248;2023-04-24T10:19:46;3.20;;;1.20;;
78891;SDS011;68368;51.728;5.248;2023-04-24T10:21:50;4.40;;;1.20;;
78891;SDS011;68368;51.728;5.248;2023-04-24T10:23:53;3.50;;;0.70;;
78891;SDS011;68368;51.728;5.248;2023-04-24T10:25:57;1.80;;;0.80;;
78891;SDS011;68368;51.728;5.248;2023-04-24T10:28:02;3.30;;;0.90;;
78891;SDS011;68368;51.728;5.248;2023-04-24T10:30:07;3.40;;;0.60;;
78891;SDS011;68368;51.728;5.248;2023-04-24T10:32:13;1.90;;;0.60;;
78891;SDS011;68368;51.728;5.248;2023-04-24T10:34:16;2.60;;;0.80;;
78891;SDS011;68368;51.728;5.248;2023-04-24T10:36:23;3.90;;;0.70;;
78891;SDS011;68368;51.728;5.248;2023-04-24T10:38:30;2.20;;;0.50;;
78891;SDS011;68368;51.728;5.248;2023-04-24T10:40:34;1.60;;;0.60;;
78891;SDS011;68368;51.728;5.248;2023-04-24T10:42:40;2.30;;;0.80;;
78891;SDS011;68368;51.728;5.248;2023-04-24T10:44:48;2.80;;;0.50;;
78891;SDS011;68368;51.728;5.248;2023-04-24T10:46:54;3.10;;;0.70;;
78891;SDS011;68368;51.728;5.248;2023-04-24T10:48:57;2.10;;;0.60;;
78891;SDS011;68368;51.728;5.248;2023-04-24T10:51:04;3.20;;;0.80;;
78891;SDS011;68368;51.728;5.248;2023-04-24T10:53:15;2.20;;;0.70;;
78891;SDS011;68368;51.728;5.248;2023-04-24T11:00:14;1.10;;;0.50;;
78891;SDS011;68368;51.728;5.248;2023-04-24T11:02:23;2.10;;;0.80;;
78891;SDS011;68368;51.728;5.248;2023-04-24T11:04:39;4.00;;;0.80;;
78891;SDS011;68368;51.728;5.248;2023-04-24T11:06:42;4.20;;;0.90;;
78891;SDS011;68368;51.728;5.248;2023-04-24T11:08:46;3.40;;;0.70;;
78891;SDS011;68368;51.728;5.248;2023-04-24T11:10:54;3.10;;;0.90;;
78891;SDS011;68368;51.728;5.248;2023-04-24T11:13:11;3.80;;;1.00;;
78891;SDS011;68368;51.728;5.248;2023-04-24T11:17:38;2.70;;;0.50;;
78891;SDS011;68368;51.728;5.248;2023-04-24T11:19:43;3.40;;;0.70;;
78891;SDS011;68368;51.728;5.248;2023-04-24T11:21:57;2.40;;;1.50;;
78891;SDS011;68368;51.728;5.248;2023-04-24T11:26:26;2.40;;;0.70;;
78891;SDS011;68368;51.728;5.248;2023-04-24T11:28:29;2.30;;;0.70;;
78891;SDS011;68368;51.728;5.248;2023-04-24T11:30:32;4.30;;;0.60;;
78891;SDS011;68368;51.728;5.248;2023-04-24T11:32:36;2.50;;;0.90;;
78891;SDS011;68368;51.728;5.248;2023-04-24T11:34:41;4.70;;;1.00;;
78891;SDS011;68368;51.728;5.248;2023-04-24T11:36:49;4.20;;;0.90;;
78891;SDS011;68368;51.728;5.248;2023-04-24T11:38:52;5.50;;;1.00;;
78891;SDS011;68368;51.728;5.248;2023-04-24T11:40:55;3.40;;;0.80;;
78891;SDS011;68368;51.728;5.248;2023-04-24T11:43:00;3.10;;;0.80;;
78891;SDS011;68368;51.728;5.248;2023-04-24T11:45:09;1.90;;;0.60;;
78891;SDS011;68368;51.728;5.248;2023-04-24T11:47:13;2.90;;;0.60;;
78891;SDS011;68368;51.728;5.248;2023-04-24T11:49:17;4.10;;;1.00;;
78891;SDS011;68368;51.728;5.248;2023-04-24T11:51:21;4.70;;;0.90;;
78891;SDS011;68368;51.728;5.248;2023-04-24T11:53:25;4.70;;;1.10;;
78891;SDS011;68368;51.728;5.248;2023-04-24T11:55:28;4.60;;;1.00;;
78891;SDS011;68368;51.728;5.248;2023-04-24T11:57:31;3.30;;;1.10;;
78891;SDS011;68368;51.728;5.248;2023-04-24T11:59:38;5.70;;;1.10;;
78891;SDS011;68368;51.728;5.248;2023-04-24T12:01:45;3.70;;;1.20;;
78891;SDS011;68368;51.728;5.248;2023-04-24T12:03:49;5.20;;;1.00;;
78891;SDS011;68368;51.728;5.248;2023-04-24T12:06:07;6.50;;;1.30;;
78891;SDS011;68368;51.728;5.248;2023-04-24T12:08:11;4.70;;;1.20;;
78891;SDS011;68368;51.728;5.248;2023-04-24T12:10:28;1.90;;;0.80;;
78891;SDS011;68368;51.728;5.248;2023-04-24T12:12:33;3.10;;;0.90;;
78891;SDS011;68368;51.728;5.248;2023-04-24T12:14:43;2.40;;;0.50;;
78891;SDS011;68368;51.728;5.248;2023-04-24T12:16:48;2.00;;;0.70;;
78891;SDS011;68368;51.728;5.248;2023-04-24T12:18:53;3.80;;;0.60;;
78891;SDS011;68368;51.728;5.248;2023-04-24T12:26:16;3.90;;;0.80;;
78891;SDS011;68368;51.728;5.248;2023-04-24T12:28:19;2.50;;;0.70;;
78891;SDS011;68368;51.728;5.248;2023-04-24T12:30:26;3.80;;;1.10;;
78891;SDS011;68368;51.728;5.248;2023-04-24T12:32:28;3.80;;;1.10;;
78891;SDS011;68368;51.728;5.248;2023-04-24T12:34:31;5.30;;;1.30;;
78891;SDS011;68368;51.728;5.248;2023-04-24T12:36:33;5.30;;;0.90;;
78891;SDS011;68368;51.728;5.248;2023-04-24T12:38:36;4.70;;;0.80;;